Louis Armstrong New Orleans International Airport
KMSY : now visible

Airfield :











YOU CAN JOIN US ON...

 
LOGIN :

Register | Disclaimer

   EN    FR    IT 

 









Legend :    VFR   Marginal VFR   IFR   Intensive IFR   Very Intensive IFR
Visi :
Ceiling :
>= 8 km
>= 3000ft
5 to 8 km
1000 to 3000 ft
1500m to 5 km
500 to 1000 ft
800 to 1500m
200 to 500 ft
< 800m
< 200 ft
Symbols :   Thunderstorms  Fog  Heavy snow  Heavy precipitations  Wind > 20 kt






- Airport Elevation : 4 ft
- IATA code : MSY


KMSY - Louis Armstrong New Orleans International

CURRENT METAR :
  • 072053Z 23012KT 10SM SCT030 BKN038 OVC049 29/22 A2997 RMK AO2 RAB06E30 SLP151 P0000 60000 T02940217 56019

EXPIRED METARs :
  • 071953Z 21012KT 10SM BKN033 BKN047 BKN075 29/22 A2997 RMK AO2 SLP153 T02940217
  • 071853Z 20007KT 160V220 10SM FEW027 BKN037 OVC044 29/23 A2999 RMK AO2 SLP159 T02940228

TAF KMSY
Valid from the 07 at 18:00 until the 09 at 00:00 UTC


071727Z 0718/0824 19008KT P6SM VCSH SCT020 BKN050
FM080200 21007KT P6SM SCT020 BKN050
FM081000 24006KT P6SM SCT008 BKN020
FM081500 26006KT P6SM SCT015 BKN040



MET'MAP, your aeronautical weather chart ! - Copyright ORBIFLY December 2007 - Disclaimer

ORBIFLY MET'MAP TEAM :

Programming & Development : Alexandra Zaïnal
Concept & original design : Baudouin d'Aumeries
Assistance for programming : Marc-Olivier Méhu
Technical & hardware support : Manuel Goepfert

Contact : metmap@orbifly.com




SOURCES & CREDITS :

   NOAA       Earth
Advisory